sensor_id;sensor_type;location;lat;lon;timestamp;temperature;humidity
20524;DHT22;10420;48.542;12.270;2023-05-21T00:00:40;16.30;99.90
20524;DHT22;10420;48.542;12.270;2023-05-21T00:05:41;16.20;99.90
20524;DHT22;10420;48.542;12.270;2023-05-21T00:10:42;16.20;99.90
20524;DHT22;10420;48.542;12.270;2023-05-21T00:15:43;16.10;99.90
20524;DHT22;10420;48.542;12.270;2023-05-21T00:20:43;16.00;99.90
20524;DHT22;10420;48.542;12.270;2023-05-21T00:25:45;16.00;99.90
20524;DHT22;10420;48.542;12.270;2023-05-21T00:30:46;16.10;99.90
20524;DHT22;10420;48.542;12.270;2023-05-21T00:35:46;15.90;99.90
20524;DHT22;10420;48.542;12.270;2023-05-21T00:40:47;15.90;99.90
20524;DHT22;10420;48.542;12.270;2023-05-21T00:45:47;16.00;99.90
20524;DHT22;10420;48.542;12.270;2023-05-21T00:50:49;15.90;99.90
20524;DHT22;10420;48.542;12.270;2023-05-21T00:55:50;15.80;99.90
20524;DHT22;10420;48.542;12.270;2023-05-21T01:00:51;15.80;99.90
20524;DHT22;10420;48.542;12.270;2023-05-21T01:05:55;15.60;99.90
20524;DHT22;10420;48.542;12.270;2023-05-21T01:11:00;15.70;99.90
20524;DHT22;10420;48.542;12.270;2023-05-21T01:16:02;15.50;99.90
20524;DHT22;10420;48.542;12.270;2023-05-21T01:21:05;15.70;99.90
20524;DHT22;10420;48.542;12.270;2023-05-21T01:26:09;15.70;99.90
20524;DHT22;10420;48.542;12.270;2023-05-21T01:31:22;15.70;99.90
20524;DHT22;10420;48.542;12.270;2023-05-21T01:36:29;15.60;99.90
20524;DHT22;10420;48.542;12.270;2023-05-21T01:41:35;15.60;99.90
20524;DHT22;10420;48.542;12.270;2023-05-21T01:46:37;15.60;99.90
20524;DHT22;10420;48.542;12.270;2023-05-21T01:51:39;15.70;99.90
20524;DHT22;10420;48.542;12.270;2023-05-21T01:56:40;15.50;99.90
20524;DHT22;10420;48.542;12.270;2023-05-21T02:01:40;15.50;99.90
20524;DHT22;10420;48.542;12.270;2023-05-21T02:06:49;15.40;99.90
20524;DHT22;10420;48.542;12.270;2023-05-21T02:11:50;15.30;99.90
20524;DHT22;10420;48.542;12.270;2023-05-21T02:16:50;15.40;99.90
20524;DHT22;10420;48.542;12.270;2023-05-21T02:21:52;15.40;99.90
20524;DHT22;10420;48.542;12.270;2023-05-21T02:26:52;15.40;99.90
20524;DHT22;10420;48.542;12.270;2023-05-21T02:31:53;15.30;99.90
20524;DHT22;10420;48.542;12.270;2023-05-21T02:36:54;15.20;99.90
20524;DHT22;10420;48.542;12.270;2023-05-21T02:41:54;15.10;99.90
20524;DHT22;10420;48.542;12.270;2023-05-21T02:46:55;15.10;99.90
20524;DHT22;10420;48.542;12.270;2023-05-21T02:51:55;15.10;99.90
20524;DHT22;10420;48.542;12.270;2023-05-21T02:56:56;15.10;99.90
20524;DHT22;10420;48.542;12.270;2023-05-21T03:01:57;15.20;99.90
20524;DHT22;10420;48.542;12.270;2023-05-21T03:06:58;15.10;99.90
20524;DHT22;10420;48.542;12.270;2023-05-21T03:12:01;15.10;99.90
20524;DHT22;10420;48.542;12.270;2023-05-21T03:17:02;15.10;99.90
20524;DHT22;10420;48.542;12.270;2023-05-21T03:22:05;15.10;99.90
20524;DHT22;10420;48.542;12.270;2023-05-21T03:27:06;15.10;99.90
20524;DHT22;10420;48.542;12.270;2023-05-21T03:32:07;15.00;99.90
20524;DHT22;10420;48.542;12.270;2023-05-21T03:37:08;15.00;99.90
20524;DHT22;10420;48.542;12.270;2023-05-21T03:42:08;15.00;99.90
20524;DHT22;10420;48.542;12.270;2023-05-21T03:47:09;15.00;99.90
20524;DHT22;10420;48.542;12.270;2023-05-21T03:52:10;14.90;99.90
20524;DHT22;10420;48.542;12.270;2023-05-21T03:57:10;14.90;99.90
20524;DHT22;10420;48.542;12.270;2023-05-21T04:02:11;14.90;99.90
20524;DHT22;10420;48.542;12.270;2023-05-21T04:07:11;14.90;99.90
20524;DHT22;10420;48.542;12.270;2023-05-21T04:12:14;15.00;99.90
20524;DHT22;10420;48.542;12.270;2023-05-21T04:17:17;15.00;99.90
20524;DHT22;10420;48.542;12.270;2023-05-21T04:22:18;15.10;99.90
20524;DHT22;10420;48.542;12.270;2023-05-21T04:27:22;15.20;99.90
20524;DHT22;10420;48.542;12.270;2023-05-21T04:32:25;15.30;99.90
20524;DHT22;10420;48.542;12.270;2023-05-21T04:37:27;15.30;99.90
20524;DHT22;10420;48.542;12.270;2023-05-21T04:42:29;15.40;99.90
20524;DHT22;10420;48.542;12.270;2023-05-21T04:47:30;15.50;99.90
20524;DHT22;10420;48.542;12.270;2023-05-21T04:52:34;15.60;99.90
20524;DHT22;10420;48.542;12.270;2023-05-21T04:57:36;15.60;99.90
20524;DHT22;10420;48.542;12.270;2023-05-21T05:02:36;15.70;99.90
20524;DHT22;10420;48.542;12.270;2023-05-21T05:07:37;15.60;99.90
20524;DHT22;10420;48.542;12.270;2023-05-21T05:12:38;15.80;99.90
20524;DHT22;10420;48.542;12.270;2023-05-21T05:17:38;15.90;99.90
20524;DHT22;10420;48.542;12.270;2023-05-21T05:22:39;15.90;99.90
20524;DHT22;10420;48.542;12.270;2023-05-21T05:27:39;15.90;99.90
20524;DHT22;10420;48.542;12.270;2023-05-21T05:32:40;16.10;99.90
20524;DHT22;10420;48.542;12.270;2023-05-21T05:37:41;16.00;99.90
20524;DHT22;10420;48.542;12.270;2023-05-21T05:42:41;16.10;99.90
20524;DHT22;10420;48.542;12.270;2023-05-21T05:47:42;16.20;99.90
20524;DHT22;10420;48.542;12.270;2023-05-21T05:52:42;16.40;99.90
20524;DHT22;10420;48.542;12.270;2023-05-21T05:57:43;16.40;99.90
20524;DHT22;10420;48.542;12.270;2023-05-21T06:02:44;16.50;99.90
20524;DHT22;10420;48.542;12.270;2023-05-21T06:07:44;16.70;99.90
20524;DHT22;10420;48.542;12.270;2023-05-21T06:12:45;17.00;99.90
20524;DHT22;10420;48.542;12.270;2023-05-21T06:17:46;17.00;99.90
20524;DHT22;10420;48.542;12.270;2023-05-21T06:22:46;17.20;99.90
20524;DHT22;10420;48.542;12.270;2023-05-21T06:27:47;17.40;99.90
20524;DHT22;10420;48.542;12.270;2023-05-21T06:32:48;17.70;99.90
20524;DHT22;10420;48.542;12.270;2023-05-21T06:37:48;17.90;99.90
20524;DHT22;10420;48.542;12.270;2023-05-21T06:42:49;18.20;99.90
20524;DHT22;10420;48.542;12.270;2023-05-21T06:47:50;18.40;99.90
20524;DHT22;10420;48.542;12.270;2023-05-21T06:52:50;18.80;99.90
20524;DHT22;10420;48.542;12.270;2023-05-21T06:57:51;19.40;99.90
20524;DHT22;10420;48.542;12.270;2023-05-21T07:02:52;20.10;99.90
20524;DHT22;10420;48.542;12.270;2023-05-21T07:07:52;20.00;99.90
20524;DHT22;10420;48.542;12.270;2023-05-21T07:12:53;19.80;99.90
20524;DHT22;10420;48.542;12.270;2023-05-21T07:17:54;19.90;99.90
20524;DHT22;10420;48.542;12.270;2023-05-21T07:22:54;20.40;99.90
20524;DHT22;10420;48.542;12.270;2023-05-21T07:27:55;21.00;99.90
20524;DHT22;10420;48.542;12.270;2023-05-21T07:32:56;20.50;99.90
20524;DHT22;10420;48.542;12.270;2023-05-21T07:37:57;20.70;99.90
20524;DHT22;10420;48.542;12.270;2023-05-21T07:42:57;21.30;99.90
20524;DHT22;10420;48.542;12.270;2023-05-21T07:47:58;21.70;99.90
20524;DHT22;10420;48.542;12.270;2023-05-21T07:52:59;21.20;99.90
20524;DHT22;10420;48.542;12.270;2023-05-21T07:57:59;21.00;99.90
20524;DHT22;10420;48.542;12.270;2023-05-21T08:03:00;21.30;99.90
20524;DHT22;10420;48.542;12.270;2023-05-21T08:08:02;21.70;99.90
20524;DHT22;10420;48.542;12.270;2023-05-21T08:13:04;22.40;99.90
20524;DHT22;10420;48.542;12.270;2023-05-21T08:18:05;22.00;99.90
20524;DHT22;10420;48.542;12.270;2023-05-21T08:23:05;22.30;99.90
20524;DHT22;10420;48.542;12.270;2023-05-21T08:28:06;22.80;99.90
20524;DHT22;10420;48.542;12.270;2023-05-21T08:33:07;22.30;99.90
20524;DHT22;10420;48.542;12.270;2023-05-21T08:38:07;22.70;99.90
20524;DHT22;10420;48.542;12.270;2023-05-21T08:43:08;22.90;99.90
20524;DHT22;10420;48.542;12.270;2023-05-21T08:48:15;22.60;99.90
20524;DHT22;10420;48.542;12.270;2023-05-21T08:53:16;23.10;99.90
20524;DHT22;10420;48.542;12.270;2023-05-21T08:58:17;23.80;99.90
20524;DHT22;10420;48.542;12.270;2023-05-21T09:03:18;23.60;99.90
20524;DHT22;10420;48.542;12.270;2023-05-21T09:08:26;24.20;99.90
20524;DHT22;10420;48.542;12.270;2023-05-21T09:13:30;24.20;99.90
20524;DHT22;10420;48.542;12.270;2023-05-21T09:18:32;24.10;99.90
20524;DHT22;10420;48.542;12.270;2023-05-21T09:23:32;24.60;99.90
20524;DHT22;10420;48.542;12.270;2023-05-21T09:28:34;24.30;99.90
20524;DHT22;10420;48.542;12.270;2023-05-21T09:33:44;24.50;99.90
20524;DHT22;10420;48.542;12.270;2023-05-21T09:38:47;24.20;99.90
20524;DHT22;10420;48.542;12.270;2023-05-21T09:43:48;24.30;99.90
20524;DHT22;10420;48.542;12.270;2023-05-21T09:48:49;24.50;99.90
20524;DHT22;10420;48.542;12.270;2023-05-21T09:53:51;24.70;99.90
20524;DHT22;10420;48.542;12.270;2023-05-21T09:58:59;25.00;99.90
20524;DHT22;10420;48.542;12.270;2023-05-21T10:04:05;24.30;99.90
20524;DHT22;10420;48.542;12.270;2023-05-21T10:09:09;24.90;99.90
20524;DHT22;10420;48.542;12.270;2023-05-21T10:14:15;24.30;99.90
20524;DHT22;10420;48.542;12.270;2023-05-21T10:19:16;23.70;99.90
20524;DHT22;10420;48.542;12.270;2023-05-21T10:24:18;24.00;99.90
20524;DHT22;10420;48.542;12.270;2023-05-21T10:29:19;23.90;99.90
20524;DHT22;10420;48.542;12.270;2023-05-21T10:34:22;23.90;99.90
20524;DHT22;10420;48.542;12.270;2023-05-21T10:39:24;23.70;99.90
20524;DHT22;10420;48.542;12.270;2023-05-21T11:00:37;24.50;99.90
20524;DHT22;10420;48.542;12.270;2023-05-21T11:05:55;24.60;99.90
20524;DHT22;10420;48.542;12.270;2023-05-21T11:10:59;24.40;99.90
20524;DHT22;10420;48.542;12.270;2023-05-21T11:21:16;25.20;99.90
20524;DHT22;10420;48.542;12.270;2023-05-21T11:26:22;25.20;99.90
20524;DHT22;10420;48.542;12.270;2023-05-21T11:31:23;24.80;99.90
20524;DHT22;10420;48.542;12.270;2023-05-21T11:36:26;25.90;99.90
20524;DHT22;10420;48.542;12.270;2023-05-21T11:41:27;25.70;99.90
20524;DHT22;10420;48.542;12.270;2023-05-21T11:46:28;25.90;99.90
20524;DHT22;10420;48.542;12.270;2023-05-21T11:51:29;25.30;99.90
20524;DHT22;10420;48.542;12.270;2023-05-21T11:56:31;24.80;99.90
20524;DHT22;10420;48.542;12.270;2023-05-21T12:01:32;24.60;99.90
20524;DHT22;10420;48.542;12.270;2023-05-21T12:06:33;24.50;99.90
20524;DHT22;10420;48.542;12.270;2023-05-21T12:11:33;24.90;99.90
20524;DHT22;10420;48.542;12.270;2023-05-21T12:16:34;25.00;99.90
20524;DHT22;10420;48.542;12.270;2023-05-21T12:21:35;25.10;99.90
20524;DHT22;10420;48.542;12.270;2023-05-21T12:26:36;24.90;99.90
20524;DHT22;10420;48.542;12.270;2023-05-21T12:31:47;25.00;99.90
20524;DHT22;10420;48.542;12.270;2023-05-21T12:36:49;24.90;99.90
20524;DHT22;10420;48.542;12.270;2023-05-21T12:41:53;24.70;99.90
20524;DHT22;10420;48.542;12.270;2023-05-21T12:46:54;24.90;99.90
20524;DHT22;10420;48.542;12.270;2023-05-21T12:51:55;25.20;99.90
20524;DHT22;10420;48.542;12.270;2023-05-21T12:56:56;25.10;99.90
20524;DHT22;10420;48.542;12.270;2023-05-21T13:01:57;24.90;99.90
20524;DHT22;10420;48.542;12.270;2023-05-21T13:06:57;25.10;99.90
20524;DHT22;10420;48.542;12.270;2023-05-21T13:11:58;25.20;99.90
20524;DHT22;10420;48.542;12.270;2023-05-21T13:16:58;25.20;99.90
20524;DHT22;10420;48.542;12.270;2023-05-21T13:21:59;24.80;99.90
20524;DHT22;10420;48.542;12.270;2023-05-21T13:27:00;24.70;99.90
20524;DHT22;10420;48.542;12.270;2023-05-21T13:32:01;24.80;99.90
20524;DHT22;10420;48.542;12.270;2023-05-21T13:37:02;24.90;99.90
20524;DHT22;10420;48.542;12.270;2023-05-21T13:42:02;25.30;99.90
20524;DHT22;10420;48.542;12.270;2023-05-21T13:47:05;25.00;99.90
20524;DHT22;10420;48.542;12.270;2023-05-21T13:52:07;25.00;99.90
20524;DHT22;10420;48.542;12.270;2023-05-21T13:57:08;25.20;99.90
20524;DHT22;10420;48.542;12.270;2023-05-21T14:02:09;25.30;99.90
20524;DHT22;10420;48.542;12.270;2023-05-21T14:07:10;25.10;99.90
20524;DHT22;10420;48.542;12.270;2023-05-21T14:12:11;24.90;99.90
20524;DHT22;10420;48.542;12.270;2023-05-21T14:17:12;25.00;99.90
20524;DHT22;10420;48.542;12.270;2023-05-21T14:22:12;25.30;99.90
20524;DHT22;10420;48.542;12.270;2023-05-21T14:27:14;25.10;99.90
20524;DHT22;10420;48.542;12.270;2023-05-21T14:32:15;25.00;99.90
20524;DHT22;10420;48.542;12.270;2023-05-21T14:37:17;25.00;99.90
20524;DHT22;10420;48.542;12.270;2023-05-21T14:42:18;24.90;99.90
20524;DHT22;10420;48.542;12.270;2023-05-21T14:47:18;24.70;99.90
20524;DHT22;10420;48.542;12.270;2023-05-21T14:52:19;24.80;99.90
20524;DHT22;10420;48.542;12.270;2023-05-21T14:57:20;24.70;99.90
20524;DHT22;10420;48.542;12.270;2023-05-21T15:02:21;24.90;99.90
20524;DHT22;10420;48.542;12.270;2023-05-21T15:07:21;25.00;99.90
20524;DHT22;10420;48.542;12.270;2023-05-21T15:12:22;24.60;99.90
20524;DHT22;10420;48.542;12.270;2023-05-21T15:17:23;24.40;99.90
20524;DHT22;10420;48.542;12.270;2023-05-21T15:22:23;24.50;99.90
20524;DHT22;10420;48.542;12.270;2023-05-21T15:27:24;24.40;99.90
20524;DHT22;10420;48.542;12.270;2023-05-21T15:32:25;24.40;99.90
20524;DHT22;10420;48.542;12.270;2023-05-21T15:37:25;24.50;99.90
20524;DHT22;10420;48.542;12.270;2023-05-21T15:42:26;24.40;99.90
20524;DHT22;10420;48.542;12.270;2023-05-21T15:47:30;24.50;99.90
20524;DHT22;10420;48.542;12.270;2023-05-21T15:52:31;24.70;99.90
20524;DHT22;10420;48.542;12.270;2023-05-21T15:57:31;24.60;99.90
20524;DHT22;10420;48.542;12.270;2023-05-21T16:02:32;24.50;99.90
20524;DHT22;10420;48.542;12.270;2023-05-21T16:07:33;24.30;99.90
20524;DHT22;10420;48.542;12.270;2023-05-21T16:12:33;24.10;99.90
20524;DHT22;10420;48.542;12.270;2023-05-21T16:17:34;24.00;99.90
20524;DHT22;10420;48.542;12.270;2023-05-21T16:22:35;24.00;99.90
20524;DHT22;10420;48.542;12.270;2023-05-21T16:27:35;24.00;99.90
20524;DHT22;10420;48.542;12.270;2023-05-21T16:32:36;24.00;99.90
20524;DHT22;10420;48.542;12.270;2023-05-21T16:37:38;24.10;99.90
20524;DHT22;10420;48.542;12.270;2023-05-21T16:42:39;24.10;99.90
20524;DHT22;10420;48.542;12.270;2023-05-21T16:47:40;24.00;99.90
20524;DHT22;10420;48.542;12.270;2023-05-21T16:52:40;23.90;99.90
20524;DHT22;10420;48.542;12.270;2023-05-21T16:57:41;23.90;99.90
20524;DHT22;10420;48.542;12.270;2023-05-21T17:02:42;23.80;99.90
20524;DHT22;10420;48.542;12.270;2023-05-21T17:07:42;23.70;99.90
20524;DHT22;10420;48.542;12.270;2023-05-21T17:12:43;23.60;99.90
20524;DHT22;10420;48.542;12.270;2023-05-21T17:17:43;23.50;99.90
20524;DHT22;10420;48.542;12.270;2023-05-21T17:22:44;23.30;99.90
20524;DHT22;10420;48.542;12.270;2023-05-21T17:27:45;23.20;99.90
20524;DHT22;10420;48.542;12.270;2023-05-21T17:32:46;23.20;99.90
20524;DHT22;10420;48.542;12.270;2023-05-21T17:37:46;23.10;99.90
20524;DHT22;10420;48.542;12.270;2023-05-21T17:42:47;23.00;99.90
20524;DHT22;10420;48.542;12.270;2023-05-21T17:47:48;22.90;99.90
20524;DHT22;10420;48.542;12.270;2023-05-21T17:52:48;22.80;99.90
20524;DHT22;10420;48.542;12.270;2023-05-21T17:57:49;22.60;99.90
20524;DHT22;10420;48.542;12.270;2023-05-21T18:02:50;22.50;99.90
20524;DHT22;10420;48.542;12.270;2023-05-21T18:07:50;22.30;99.90
20524;DHT22;10420;48.542;12.270;2023-05-21T18:12:51;22.20;99.90
20524;DHT22;10420;48.542;12.270;2023-05-21T18:17:51;22.10;99.90
20524;DHT22;10420;48.542;12.270;2023-05-21T18:22:52;21.90;99.90
20524;DHT22;10420;48.542;12.270;2023-05-21T18:27:53;21.80;99.90
20524;DHT22;10420;48.542;12.270;2023-05-21T18:32:54;21.70;99.90
20524;DHT22;10420;48.542;12.270;2023-05-21T18:37:54;21.50;99.90
20524;DHT22;10420;48.542;12.270;2023-05-21T18:42:55;21.40;99.90
20524;DHT22;10420;48.542;12.270;2023-05-21T18:47:56;21.30;99.90
20524;DHT22;10420;48.542;12.270;2023-05-21T18:52:57;21.10;99.90
20524;DHT22;10420;48.542;12.270;2023-05-21T18:57:57;21.00;99.90
20524;DHT22;10420;48.542;12.270;2023-05-21T19:02:58;20.90;99.90
20524;DHT22;10420;48.542;12.270;2023-05-21T19:07:59;20.70;99.90
20524;DHT22;10420;48.542;12.270;2023-05-21T19:13:00;20.70;99.90
20524;DHT22;10420;48.542;12.270;2023-05-21T19:18:00;20.40;99.90
20524;DHT22;10420;48.542;12.270;2023-05-21T19:23:02;20.50;99.90
20524;DHT22;10420;48.542;12.270;2023-05-21T19:28:03;20.30;99.90
20524;DHT22;10420;48.542;12.270;2023-05-21T19:33:04;20.30;99.90
20524;DHT22;10420;48.542;12.270;2023-05-21T19:38:05;20.20;99.90
20524;DHT22;10420;48.542;12.270;2023-05-21T19:43:06;20.20;99.90
20524;DHT22;10420;48.542;12.270;2023-05-21T19:48:06;20.10;99.90
20524;DHT22;10420;48.542;12.270;2023-05-21T19:53:07;20.10;99.90
20524;DHT22;10420;48.542;12.270;2023-05-21T19:58:08;20.00;99.90
20524;DHT22;10420;48.542;12.270;2023-05-21T20:03:12;20.00;99.90
20524;DHT22;10420;48.542;12.270;2023-05-21T20:08:13;20.00;99.90
20524;DHT22;10420;48.542;12.270;2023-05-21T20:13:14;19.90;99.90
20524;DHT22;10420;48.542;12.270;2023-05-21T20:18:15;19.90;99.90
20524;DHT22;10420;48.542;12.270;2023-05-21T20:23:16;19.80;99.90
20524;DHT22;10420;48.542;12.270;2023-05-21T20:28:16;19.80;99.90
20524;DHT22;10420;48.542;12.270;2023-05-21T20:33:18;19.70;99.90
20524;DHT22;10420;48.542;12.270;2023-05-21T20:38:19;19.70;99.90
20524;DHT22;10420;48.542;12.270;2023-05-21T20:43:20;19.70;99.90
20524;DHT22;10420;48.542;12.270;2023-05-21T20:48:24;19.60;99.90
20524;DHT22;10420;48.542;12.270;2023-05-21T20:53:25;19.50;99.90
20524;DHT22;10420;48.542;12.270;2023-05-21T20:58:26;19.40;99.90
20524;DHT22;10420;48.542;12.270;2023-05-21T21:03:27;19.40;99.90
20524;DHT22;10420;48.542;12.270;2023-05-21T21:08:29;19.30;99.90
20524;DHT22;10420;48.542;12.270;2023-05-21T21:13:29;19.30;99.90
20524;DHT22;10420;48.542;12.270;2023-05-21T21:18:30;19.30;99.90
20524;DHT22;10420;48.542;12.270;2023-05-21T21:23:31;19.10;99.90
20524;DHT22;10420;48.542;12.270;2023-05-21T21:28:32;19.10;99.90
20524;DHT22;10420;48.542;12.270;2023-05-21T21:33:33;19.10;99.90
20524;DHT22;10420;48.542;12.270;2023-05-21T21:38:33;19.00;99.90
20524;DHT22;10420;48.542;12.270;2023-05-21T21:43:34;18.90;99.90
20524;DHT22;10420;48.542;12.270;2023-05-21T21:48:35;18.90;99.90
20524;DHT22;10420;48.542;12.270;2023-05-21T21:53:35;18.90;99.90
20524;DHT22;10420;48.542;12.270;2023-05-21T21:58:36;18.80;99.90
20524;DHT22;10420;48.542;12.270;2023-05-21T22:03:37;18.80;99.90
20524;DHT22;10420;48.542;12.270;2023-05-21T22:08:37;18.70;99.90
20524;DHT22;10420;48.542;12.270;2023-05-21T22:13:38;18.80;99.90
20524;DHT22;10420;48.542;12.270;2023-05-21T22:18:41;18.60;99.90
20524;DHT22;10420;48.542;12.270;2023-05-21T22:23:41;18.50;99.90
20524;DHT22;10420;48.542;12.270;2023-05-21T22:28:42;18.50;99.90
20524;DHT22;10420;48.542;12.270;2023-05-21T22:33:43;18.30;99.90
20524;DHT22;10420;48.542;12.270;2023-05-21T22:38:43;18.20;99.90
20524;DHT22;10420;48.542;12.270;2023-05-21T22:43:44;18.20;99.90
20524;DHT22;10420;48.542;12.270;2023-05-21T22:48:45;18.00;99.90
20524;DHT22;10420;48.542;12.270;2023-05-21T22:53:46;18.00;99.90
20524;DHT22;10420;48.542;12.270;2023-05-21T22:58:47;18.00;99.90
20524;DHT22;10420;48.542;12.270;2023-05-21T23:03:47;17.90;99.90
20524;DHT22;10420;48.542;12.270;2023-05-21T23:08:48;17.70;99.90
20524;DHT22;10420;48.542;12.270;2023-05-21T23:13:49;17.70;99.90
20524;DHT22;10420;48.542;12.270;2023-05-21T23:18:49;17.60;99.90
20524;DHT22;10420;48.542;12.270;2023-05-21T23:23:50;17.70;99.90
20524;DHT22;10420;48.542;12.270;2023-05-21T23:28:51;17.60;99.90
20524;DHT22;10420;48.542;12.270;2023-05-21T23:33:51;17.50;99.90
20524;DHT22;10420;48.542;12.270;2023-05-21T23:38:52;17.40;99.90
20524;DHT22;10420;48.542;12.270;2023-05-21T23:43:53;17.30;99.90
20524;DHT22;10420;48.542;12.270;2023-05-21T23:48:53;17.20;99.90
20524;DHT22;10420;48.542;12.270;2023-05-21T23:53:54;17.20;99.90
20524;DHT22;10420;48.542;12.270;2023-05-21T23:58:55;17.00;99.90
